createdAt,value
2019-03-01T00:01:25.234Z,6.65
2019-03-01T00:04:12.197Z,6.62
2019-03-01T00:06:58.639Z,6.39
2019-03-01T00:10:03.374Z,6.33
2019-03-01T00:14:04.792Z,6.32
2019-03-01T00:17:40.819Z,6.31
2019-03-01T00:21:07.242Z,6.26
2019-03-01T00:24:34.202Z,6.27
2019-03-01T00:28:00.436Z,6.31
2019-03-01T00:31:29.568Z,6.36
2019-03-01T00:34:52.791Z,6.51
2019-03-01T00:38:40.253Z,6.58
2019-03-01T00:42:26.065Z,6.62
2019-03-01T00:44:57.719Z,6.78
2019-03-01T00:47:29.337Z,6.76
2019-03-01T00:50:01.060Z,6.83
2019-03-01T00:52:32.792Z,6.88
2019-03-01T00:55:04.973Z,6.86
2019-03-01T00:57:36.702Z,6.86
2019-03-01T01:00:11.509Z,6.86
2019-03-01T01:02:43.308Z,6.85
2019-03-01T01:05:15.234Z,6.84
2019-03-01T01:07:46.839Z,6.85
2019-03-01T01:10:18.614Z,6.89
2019-03-01T01:12:50.266Z,6.88
2019-03-01T01:15:21.924Z,6.85
2019-03-01T01:17:53.666Z,6.84
2019-03-01T01:20:25.579Z,6.82
2019-03-01T01:22:57.222Z,6.74
2019-03-01T01:25:28.734Z,6.78
2019-03-01T01:28:00.481Z,6.75
2019-03-01T01:30:32.188Z,6.72
2019-03-01T01:33:03.968Z,6.67
2019-03-01T01:35:35.596Z,6.63
2019-03-01T01:38:07.216Z,6.58
2019-03-01T01:40:38.775Z,6.51
2019-03-01T01:43:10.687Z,6.50
2019-03-01T01:45:42.150Z,6.54
2019-03-01T01:48:13.729Z,6.57
2019-03-01T01:50:45.284Z,6.57
2019-03-01T01:53:16.693Z,6.62
2019-03-01T01:55:48.294Z,6.62
2019-03-01T01:58:19.927Z,6.68
2019-03-01T02:00:51.320Z,6.69
2019-03-01T02:03:23.053Z,6.76
2019-03-01T02:05:55.010Z,6.69
2019-03-01T02:08:26.818Z,6.70
2019-03-01T02:10:58.728Z,6.73
2019-03-01T02:13:30.446Z,6.73
2019-03-01T02:16:01.994Z,6.82
2019-03-01T02:18:33.675Z,6.86
2019-03-01T02:21:05.772Z,6.87
2019-03-01T02:23:37.471Z,6.90
2019-03-01T02:26:09.317Z,6.78
2019-03-01T02:28:42.183Z,6.83
2019-03-01T02:31:14.297Z,6.87
2019-03-01T02:33:46.083Z,6.93
2019-03-01T02:36:17.907Z,6.98
2019-03-01T02:38:49.687Z,7.02
2019-03-01T02:41:21.319Z,7.01
2019-03-01T02:43:52.772Z,6.98
2019-03-01T02:46:24.474Z,6.98
2019-03-01T02:48:56.196Z,6.94
2019-03-01T02:51:27.722Z,6.89
2019-03-01T02:53:59.363Z,6.89
2019-03-01T02:56:31.232Z,6.91
2019-03-01T02:59:02.958Z,6.95
2019-03-01T03:01:34.752Z,7.01
2019-03-01T03:04:06.633Z,7.07
2019-03-01T03:07:00.624Z,7.15
2019-03-01T03:09:32.668Z,7.22
2019-03-01T03:12:05.010Z,7.31
2019-03-01T03:14:36.644Z,7.36
2019-03-01T03:17:08.255Z,7.36
2019-03-01T03:19:39.835Z,7.35
2019-03-01T03:22:11.476Z,7.29
2019-03-01T03:24:43.073Z,7.23
2019-03-01T03:27:14.579Z,7.17
2019-03-01T03:29:46.010Z,7.08
2019-03-01T03:32:17.657Z,7.04
2019-03-01T03:34:49.752Z,7.03
2019-03-01T03:37:21.328Z,7.02
2019-03-01T03:39:52.913Z,7.00
2019-03-01T03:42:24.581Z,7.00
2019-03-01T03:44:56.610Z,7.09
2019-03-01T03:47:28.952Z,7.15
2019-03-01T03:50:01.386Z,7.23
2019-03-01T03:52:33.033Z,7.45
2019-03-01T03:55:04.910Z,7.39
2019-03-01T03:57:36.639Z,7.33
2019-03-01T04:00:13.792Z,7.22
2019-03-01T04:02:45.675Z,7.18
2019-03-01T04:05:17.661Z,7.08
2019-03-01T04:07:49.647Z,7.04
2019-03-01T04:10:23.416Z,7.12
2019-03-01T04:12:55.130Z,7.15
2019-03-01T04:15:26.774Z,7.18
2019-03-01T04:17:58.570Z,7.24
2019-03-01T04:20:30.349Z,7.26
2019-03-01T04:23:02.090Z,7.27
2019-03-01T04:25:33.791Z,7.26
2019-03-01T04:28:05.526Z,7.30
2019-03-01T04:30:37.467Z,7.32
2019-03-01T04:33:09.449Z,7.26
2019-03-01T04:35:41.076Z,7.22
2019-03-01T04:38:12.575Z,7.21
2019-03-01T04:40:44.315Z,7.18
2019-03-01T04:43:16.031Z,7.17
2019-03-01T04:45:47.546Z,7.15
2019-03-01T04:48:19.629Z,7.10
2019-03-01T04:50:51.077Z,7.09
2019-03-01T04:53:23.628Z,7.08
2019-03-01T04:55:55.334Z,7.10
2019-03-01T04:58:27.610Z,7.08
2019-03-01T05:00:59.194Z,7.11
2019-03-01T05:03:31.207Z,7.13
2019-03-01T05:06:03.059Z,7.13
2019-03-01T05:08:35.046Z,7.13
2019-03-01T05:11:06.649Z,7.07
2019-03-01T05:13:38.289Z,7.04
2019-03-01T05:16:10.088Z,7.05
2019-03-01T05:18:41.808Z,7.02
2019-03-01T05:21:13.382Z,7.04
2019-03-01T05:23:44.978Z,7.07
2019-03-01T05:30:08.699Z,7.13
2019-03-01T05:32:40.386Z,7.16
2019-03-01T05:35:12.479Z,7.18
2019-03-01T05:37:44.318Z,7.18
2019-03-01T05:40:16.377Z,7.17
2019-03-01T05:42:55.261Z,7.19
2019-03-01T05:45:27.103Z,7.18
2019-03-01T05:47:59.990Z,7.19
2019-03-01T05:50:31.791Z,7.17
2019-03-01T05:53:03.343Z,7.17
2019-03-01T05:55:35.303Z,7.17
2019-03-01T05:58:47.763Z,7.19
2019-03-01T06:01:35.820Z,7.21
2019-03-01T06:04:20.387Z,7.23
2019-03-01T06:07:34.019Z,7.18
2019-03-01T06:11:16.571Z,7.20
2019-03-01T06:14:32.130Z,7.24
2019-03-01T06:17:44.417Z,7.28
2019-03-01T06:21:04.125Z,7.30
2019-03-01T06:24:30.910Z,7.31
2019-03-01T06:28:04.576Z,7.34
2019-03-01T06:31:07.283Z,7.42
2019-03-01T06:35:02.479Z,7.50
2019-03-01T06:38:56.865Z,7.55
2019-03-01T06:42:35.653Z,7.17
2019-03-01T06:46:02.779Z,7.34
2019-03-01T06:48:57.606Z,7.48
2019-03-01T06:51:32.229Z,7.63
2019-03-01T06:54:04.197Z,7.82
2019-03-01T06:56:36.024Z,7.84
2019-03-01T06:59:09.480Z,7.87
2019-03-01T07:01:46.672Z,7.93
2019-03-01T07:04:19.109Z,7.55
2019-03-01T07:06:50.825Z,7.48
2019-03-01T07:09:22.570Z,7.58
2019-03-01T07:11:54.443Z,7.69
2019-03-01T07:14:26.182Z,7.78
2019-03-01T07:16:58.220Z,7.92
2019-03-01T07:19:30.244Z,8.02
2019-03-01T07:22:02.129Z,8.16
2019-03-01T07:24:34.089Z,8.35
2019-03-01T07:27:05.571Z,8.41
2019-03-01T07:29:37.640Z,8.52
2019-03-01T07:32:09.368Z,8.42
2019-03-01T07:34:41.291Z,8.53
2019-03-01T07:37:13.103Z,8.63
2019-03-01T07:39:45.115Z,8.67
2019-03-01T07:42:16.843Z,8.78
2019-03-01T07:44:48.641Z,8.97
2019-03-01T07:47:20.671Z,9.14
2019-03-01T07:49:52.387Z,9.29
2019-03-01T07:52:24.886Z,9.40
2019-03-01T07:57:28.819Z,9.61
2019-03-01T08:00:01.453Z,9.66
2019-03-01T08:02:35.900Z,9.72
2019-03-01T08:05:08.704Z,9.66
2019-03-01T08:07:55.588Z,9.66
2019-03-01T08:10:23.007Z,9.67
2019-03-01T08:12:55.403Z,9.73
2019-03-01T08:15:27.182Z,9.80
2019-03-01T08:18:00.486Z,10.06
2019-03-01T08:20:33.887Z,10.17
2019-03-01T08:23:06.216Z,10.30
2019-03-01T08:25:38.073Z,10.53
2019-03-01T08:28:10.807Z,10.82
2019-03-01T08:30:45.418Z,11.04
2019-03-01T08:33:16.872Z,11.21
2019-03-01T08:35:48.949Z,11.40
2019-03-01T08:38:20.993Z,11.51
2019-03-01T08:40:54.463Z,11.71
2019-03-01T08:43:26.638Z,11.70
2019-03-01T08:45:58.235Z,11.79
2019-03-01T08:48:30.518Z,11.84
2019-03-01T08:51:03.697Z,12.10
2019-03-01T08:53:37.913Z,12.39
2019-03-01T08:56:10.933Z,12.61
2019-03-01T08:58:43.254Z,12.75
2019-03-01T09:01:15.829Z,13.08
2019-03-01T09:03:53.905Z,13.23
2019-03-01T09:10:17.598Z,13.41
2019-03-01T09:12:50.110Z,13.52
2019-03-01T09:15:23.866Z,13.59
2019-03-01T09:18:04.714Z,13.47
2019-03-01T09:20:38.628Z,13.27
2019-03-01T09:23:22.904Z,13.03
2019-03-01T09:25:45.367Z,12.77
2019-03-01T09:28:17.076Z,12.44
2019-03-01T09:30:48.993Z,12.17
2019-03-01T09:33:21.549Z,12.06
2019-03-01T09:36:14.403Z,12.06
2019-03-01T09:38:46.952Z,12.15
2019-03-01T09:41:18.735Z,12.30
2019-03-01T09:43:50.553Z,12.54
2019-03-01T09:46:24.753Z,12.61
2019-03-01T09:48:56.518Z,12.77
2019-03-01T09:51:28.374Z,12.78
2019-03-01T09:54:00.240Z,12.65
2019-03-01T09:56:32.078Z,12.69
2019-03-01T09:59:04.069Z,12.68
2019-03-01T10:01:38.458Z,12.60
2019-03-01T10:04:10.130Z,12.53
2019-03-01T10:06:41.813Z,12.66
2019-03-01T10:09:14.271Z,13.53
2019-03-01T10:11:46.229Z,14.03
2019-03-01T10:14:19.723Z,14.87
2019-03-01T10:16:56.202Z,14.68
2019-03-01T10:19:31.839Z,14.58
2019-03-01T10:22:07.534Z,14.54
2019-03-01T10:24:39.128Z,15.01
2019-03-01T10:27:10.735Z,14.93
2019-03-01T10:29:42.263Z,14.69
2019-03-01T10:32:13.956Z,13.75
2019-03-01T10:34:45.714Z,13.41
2019-03-01T10:37:17.366Z,13.48
2019-03-01T10:39:55.294Z,13.41
2019-03-01T10:42:23.069Z,13.16
2019-03-01T10:44:54.974Z,13.36
2019-03-01T10:47:26.839Z,13.34
2019-03-01T10:49:59.490Z,13.07
2019-03-01T10:52:31.462Z,12.97
2019-03-01T10:55:03.333Z,13.12
2019-03-01T10:57:36.428Z,12.94
2019-03-01T11:00:19.899Z,13.03
2019-03-01T11:02:52.484Z,13.09
2019-03-01T11:05:24.834Z,13.18
2019-03-01T11:07:56.656Z,13.59
2019-03-01T11:10:31.874Z,13.89
2019-03-01T11:13:03.573Z,13.98
2019-03-01T11:15:35.542Z,14.22
2019-03-01T11:18:07.467Z,13.75
2019-03-01T11:20:39.138Z,14.20
2019-03-01T11:23:11.666Z,14.21
2019-03-01T11:25:43.556Z,13.69
2019-03-01T11:28:15.511Z,14.15
2019-03-01T11:30:47.997Z,14.24
2019-03-01T11:33:19.874Z,14.30
2019-03-01T11:35:52.102Z,14.10
2019-03-01T11:38:23.872Z,13.96
2019-03-01T11:40:55.953Z,13.96
2019-03-01T11:43:27.973Z,13.75
2019-03-01T11:46:00.783Z,13.59
2019-03-01T11:48:32.668Z,13.62
2019-03-01T11:51:04.404Z,13.65
2019-03-01T11:53:36.276Z,13.19
2019-03-01T11:56:10.368Z,13.59
2019-03-01T11:58:42.554Z,13.81
2019-03-01T12:01:17.257Z,13.87
2019-03-01T12:03:48.210Z,13.94
2019-03-01T12:06:20.715Z,14.06
2019-03-01T12:08:52.728Z,13.70
2019-03-01T12:11:24.962Z,14.02
2019-03-01T12:13:56.685Z,14.39
2019-03-01T12:16:28.716Z,14.39
2019-03-01T12:19:00.529Z,14.72
2019-03-01T12:21:33.300Z,14.80
2019-03-01T12:24:23.915Z,14.59
2019-03-01T12:26:55.932Z,14.87
2019-03-01T12:29:27.955Z,14.92
2019-03-01T12:31:59.920Z,14.83
2019-03-01T12:34:31.843Z,14.65
2019-03-01T12:37:04.159Z,14.79
2019-03-01T12:39:36.163Z,14.58
2019-03-01T12:42:08.367Z,14.79
2019-03-01T12:44:40.003Z,14.67
2019-03-01T12:47:11.842Z,14.50
2019-03-01T12:49:43.681Z,14.40
2019-03-01T12:52:15.563Z,14.42
2019-03-01T12:54:47.446Z,14.16
2019-03-01T12:57:19.579Z,14.09
2019-03-01T12:59:51.339Z,14.21
2019-03-01T13:02:23.037Z,14.46
2019-03-01T13:04:55.033Z,14.56
2019-03-01T13:07:26.800Z,14.38
2019-03-01T13:10:02.415Z,14.59
2019-03-01T13:12:34.336Z,14.97
2019-03-01T13:15:10.616Z,15.22
2019-03-01T13:18:15.760Z,14.76
2019-03-01T13:20:46.440Z,15.17
2019-03-01T13:23:40.464Z,15.17
2019-03-01T13:26:13.500Z,15.05
2019-03-01T13:28:46.968Z,14.62
2019-03-01T13:31:19.641Z,14.34
2019-03-01T13:33:52.357Z,14.63
2019-03-01T13:36:24.759Z,14.45
2019-03-01T13:38:58.131Z,14.48
2019-03-01T13:41:30.465Z,14.37
2019-03-01T13:44:04.099Z,14.22
2019-03-01T13:46:36.718Z,14.26
2019-03-01T13:49:09.590Z,14.19
2019-03-01T13:51:42.087Z,14.18
2019-03-01T13:54:14.148Z,14.14
2019-03-01T13:56:46.924Z,14.09
2019-03-01T13:59:19.827Z,14.14
2019-03-01T14:02:04.374Z,14.13
2019-03-01T14:04:40.289Z,14.06
2019-03-01T14:07:12.493Z,13.94
2019-03-01T14:09:44.633Z,13.90
2019-03-01T14:12:16.629Z,13.88
2019-03-01T14:14:49.365Z,13.94
2019-03-01T14:17:24.566Z,13.78
2019-03-01T14:19:56.424Z,13.81
2019-03-01T14:22:29.297Z,13.78
2019-03-01T14:25:02.544Z,13.76
2019-03-01T14:27:35.040Z,13.74
2019-03-01T14:30:10.537Z,13.66
2019-03-01T14:32:42.568Z,13.64
2019-03-01T14:35:14.947Z,13.56
2019-03-01T14:37:47.385Z,13.63
2019-03-01T14:40:22.597Z,13.70
2019-03-01T14:42:53.653Z,13.68
2019-03-01T14:45:26.762Z,13.69
2019-03-01T14:47:58.705Z,13.78
2019-03-01T14:50:33.563Z,13.91
2019-03-01T14:53:05.715Z,13.93
2019-03-01T14:55:42.380Z,13.95
2019-03-01T14:58:28.700Z,13.92
2019-03-01T15:01:33.429Z,13.87
2019-03-01T15:04:05.383Z,13.82
2019-03-01T15:06:37.338Z,13.81
2019-03-01T15:09:10.746Z,13.73
2019-03-01T15:11:44.379Z,13.64
2019-03-01T15:14:16.232Z,13.53
2019-03-01T15:16:49.179Z,13.59
2019-03-01T15:19:24.206Z,13.60
2019-03-01T15:21:56.522Z,13.58
2019-03-01T15:24:29.312Z,13.55
2019-03-01T15:27:04.069Z,13.53
2019-03-01T15:29:34.736Z,13.52
2019-03-01T15:32:07.030Z,13.50
2019-03-01T15:34:38.716Z,13.47
2019-03-01T15:37:11.212Z,13.45
2019-03-01T15:39:44.308Z,13.46
2019-03-01T15:42:17.920Z,13.47
2019-03-01T15:44:49.850Z,13.47
2019-03-01T15:47:23.809Z,13.49
2019-03-01T15:49:55.907Z,13.51
2019-03-01T15:52:28.513Z,13.52
2019-03-01T15:55:01.484Z,13.51
2019-03-01T15:57:33.831Z,13.48
2019-03-01T16:00:06.958Z,13.47
2019-03-01T16:02:40.116Z,13.45
2019-03-01T16:05:12.401Z,13.44
2019-03-01T16:07:44.842Z,13.40
2019-03-01T16:10:17.951Z,13.37
2019-03-01T16:12:50.978Z,13.35
2019-03-01T16:15:22.909Z,13.22
2019-03-01T16:17:57.551Z,13.18
2019-03-01T16:20:29.214Z,13.16
2019-03-01T16:23:01.155Z,13.11
2019-03-01T16:25:32.908Z,13.08
2019-03-01T16:28:04.678Z,13.05
2019-03-01T16:30:36.825Z,13.04
2019-03-01T16:33:09.150Z,13.03
2019-03-01T16:35:41.090Z,13.02
2019-03-01T16:38:13.498Z,12.98
2019-03-01T16:40:45.855Z,12.92
2019-03-01T16:43:18.299Z,12.85
2019-03-01T16:45:53.275Z,12.78
2019-03-01T16:48:24.761Z,12.67
2019-03-01T16:50:57.208Z,12.55
2019-03-01T16:53:29.694Z,12.41
2019-03-01T16:56:02.613Z,12.26
2019-03-01T16:58:36.474Z,12.13
2019-03-01T17:01:09.106Z,11.96
2019-03-01T17:03:43.030Z,11.77
2019-03-01T17:06:14.973Z,11.64
2019-03-01T17:08:48.746Z,11.59
2019-03-01T17:11:21.299Z,11.51
2019-03-01T17:13:53.338Z,11.38
2019-03-01T17:16:25.379Z,11.26
2019-03-01T17:18:57.913Z,11.15
2019-03-01T17:21:29.962Z,11.07
2019-03-01T17:24:04.616Z,10.99
2019-03-01T17:26:40.119Z,11.06
2019-03-01T17:32:09.770Z,10.87
2019-03-01T17:34:42.498Z,10.82
2019-03-01T17:37:15.071Z,10.90
2019-03-01T17:39:47.851Z,10.96
2019-03-01T17:42:20.689Z,10.83
2019-03-01T17:44:53.685Z,10.76
2019-03-01T17:47:26.650Z,10.71
2019-03-01T17:49:59.836Z,10.60
2019-03-01T17:52:33.713Z,10.44
2019-03-01T17:55:06.449Z,10.44
2019-03-01T17:57:40.307Z,10.37
2019-03-01T18:00:18.189Z,10.29
2019-03-01T18:03:19.683Z,10.20
2019-03-01T18:05:54.839Z,10.14
2019-03-01T18:08:28.835Z,10.08
2019-03-01T18:11:02.170Z,10.02
2019-03-01T18:13:36.406Z,9.83
2019-03-01T18:16:09.727Z,9.66
2019-03-01T18:19:23.813Z,9.48
2019-03-01T18:21:55.572Z,9.30
2019-03-01T18:24:29.231Z,9.08
2019-03-01T18:27:05.410Z,8.95
2019-03-01T18:30:10.115Z,8.89
2019-03-01T18:32:45.258Z,8.93
2019-03-01T18:35:20.312Z,9.01
2019-03-01T18:37:55.840Z,9.05
2019-03-01T18:40:30.105Z,9.10
2019-03-01T18:43:03.455Z,9.00
2019-03-01T18:45:38.530Z,8.90
2019-03-01T18:48:43.967Z,8.93
2019-03-01T18:51:17.636Z,8.86
2019-03-01T18:53:51.229Z,8.87
2019-03-01T18:56:28.342Z,8.84
2019-03-01T18:59:01.774Z,8.84
2019-03-01T19:01:35.729Z,8.88
2019-03-01T19:04:12.962Z,8.83
2019-03-01T19:06:48.516Z,8.81
2019-03-01T19:09:21.388Z,8.76
2019-03-01T19:11:57.207Z,8.68
2019-03-01T19:14:31.742Z,8.61
2019-03-01T19:17:05.889Z,8.50
2019-03-01T19:19:39.754Z,8.51
2019-03-01T19:22:28.294Z,8.51
2019-03-01T19:25:44.903Z,8.50
2019-03-01T19:28:19.412Z,8.45
2019-03-01T19:30:53.849Z,8.36
2019-03-01T19:33:30.988Z,8.32
2019-03-01T19:36:04.462Z,8.30
2019-03-01T19:38:38.206Z,8.30
2019-03-01T19:41:12.498Z,8.30
2019-03-01T19:43:55.544Z,8.33
2019-03-01T19:46:26.517Z,8.37
2019-03-01T19:49:00.152Z,8.58
2019-03-01T19:51:37.444Z,8.61
2019-03-01T19:54:11.756Z,8.63
2019-03-01T19:56:46.011Z,8.61
2019-03-01T19:59:19.922Z,8.47
2019-03-01T20:01:56.179Z,8.34
2019-03-01T20:04:29.134Z,8.14
2019-03-01T20:07:02.543Z,7.95
2019-03-01T20:09:36.584Z,7.78
2019-03-01T20:12:11.558Z,7.62
2019-03-01T20:14:45.969Z,7.45
2019-03-01T20:17:21.765Z,7.33
2019-03-01T20:19:56.918Z,7.25
2019-03-01T20:22:32.102Z,7.14
2019-03-01T20:25:07.430Z,7.03
2019-03-01T20:27:41.314Z,6.95
2019-03-01T20:30:20.325Z,6.98
2019-03-01T20:32:53.920Z,7.00
2019-03-01T20:35:27.638Z,6.97
2019-03-01T20:38:04.432Z,6.97
2019-03-01T20:40:36.349Z,7.00
2019-03-01T20:43:12.615Z,7.00
2019-03-01T20:45:46.334Z,7.12
2019-03-01T20:48:19.875Z,7.13
2019-03-01T20:50:53.134Z,7.16
2019-03-01T20:53:26.513Z,7.15
2019-03-01T20:56:00.164Z,7.16
2019-03-01T20:58:35.897Z,7.27
2019-03-01T21:01:09.059Z,7.22
2019-03-01T21:03:42.905Z,7.10
2019-03-01T21:06:16.790Z,7.02
2019-03-01T21:08:49.774Z,6.90
2019-03-01T21:11:25.492Z,6.78
2019-03-01T21:14:10.490Z,6.68
2019-03-01T21:19:57.783Z,6.92
2019-03-01T21:22:31.015Z,6.80
2019-03-01T21:25:04.549Z,6.73
2019-03-01T21:27:37.799Z,6.37
2019-03-01T21:30:25.820Z,6.04
2019-03-01T21:32:59.194Z,5.79
2019-03-01T21:35:31.425Z,5.59
2019-03-01T21:38:04.945Z,5.47
2019-03-01T21:40:37.365Z,5.35
2019-03-01T21:43:09.279Z,5.36
2019-03-01T21:45:43.823Z,5.50
2019-03-01T21:48:16.339Z,5.89
2019-03-01T21:50:48.557Z,5.96
2019-03-01T21:53:20.546Z,5.73
2019-03-01T21:55:52.383Z,5.59
2019-03-01T21:58:24.862Z,5.45
2019-03-01T22:00:56.510Z,5.41
2019-03-01T22:03:28.863Z,5.34
2019-03-01T22:06:02.940Z,5.21
2019-03-01T22:08:35.290Z,5.21
2019-03-01T22:11:10.456Z,5.16
2019-03-01T22:13:41.011Z,5.04
2019-03-01T22:16:12.933Z,4.97
2019-03-01T22:18:45.514Z,5.04
2019-03-01T22:21:22.602Z,5.33
2019-03-01T22:23:52.351Z,5.00
2019-03-01T22:26:24.329Z,4.87
2019-03-01T22:28:59.557Z,4.77
2019-03-01T22:31:32.522Z,4.77
2019-03-01T22:34:05.010Z,4.85
2019-03-01T22:36:39.343Z,4.80
2019-03-01T22:39:13.728Z,4.71
2019-03-01T22:41:45.470Z,4.71
2019-03-01T22:44:17.438Z,4.76
2019-03-01T22:46:49.198Z,4.62
2019-03-01T22:49:21.805Z,4.43
2019-03-01T22:51:53.884Z,4.37
2019-03-01T22:54:25.949Z,4.28
2019-03-01T22:56:57.849Z,4.20
2019-03-01T22:59:29.806Z,4.12
2019-03-01T23:02:08.163Z,4.04
2019-03-01T23:04:39.284Z,4.00
2019-03-01T23:07:11.282Z,3.91
2019-03-01T23:09:46.484Z,3.88
2019-03-01T23:12:16.848Z,3.89
2019-03-01T23:14:49.781Z,3.86
2019-03-01T23:17:21.812Z,3.81
2019-03-01T23:19:53.573Z,3.79
2019-03-01T23:22:25.374Z,3.77
2019-03-01T23:24:57.181Z,3.70
2019-03-01T23:27:31.816Z,3.67
2019-03-01T23:30:02.167Z,3.58
2019-03-01T23:32:34.141Z,3.52
2019-03-01T23:35:05.741Z,3.46
2019-03-01T23:37:38.948Z,3.37
2019-03-01T23:40:10.746Z,3.44
2019-03-01T23:42:42.927Z,3.45
2019-03-01T23:45:17.521Z,3.51
2019-03-01T23:47:48.275Z,3.49
2019-03-01T23:50:19.984Z,3.43
2019-03-01T23:52:54.769Z,3.46
2019-03-01T23:55:25.218Z,3.43
2019-03-01T23:58:05.713Z,3.37
